Архив погоды в Донецке за Март, 2019 год

icon
Год:Все200220032004200520062007200820092010201120122013201420152016201720182019
Месяц:ЯнварьФевральМартАпрельДекабрь
Дата Облачность Температура (д/н), °C Давление, мм Влажность, % Ветер, м/с
01.03.2019 Облачность пасмурно +3 / -2 721 77 З, 4
02.03.2019 Облачность пасмурно +0 / -3 729 82 С-З, 4
03.03.2019 Облачность ясно +1 / -3 738 64 З, 3
04.03.2019 Облачность пасмурно +6 / +2 733 60 Ю-З, 8
05.03.2019 Облачность ясно +9 / +2 731 49 Ю-З, 9
06.03.2019 Облачность ясно +12 / +0 735 30 З, 4
07.03.2019 Облачность ясно +7 / -1 745 57 В, 2
08.03.2019 Облачность ясно +11 / +3 743 46 Ю, 8
09.03.2019 Облачность пасмурно +12 / +3 739 57 Ю-З, 6
10.03.2019 Облачность пасмурно +7 / +1 731 90 Ю-З, 5
11.03.2019 Облачность дождь +7 / +1 728 93 Ю, 7
12.03.2019 Облачность пасмурно +3 / -1 735 64 С-В, 2
13.03.2019 Облачность пасмурно +6 / -4 738 50 С-З, 2
14.03.2019 Облачность ясно +7 / +0 739 35 В, 4
15.03.2019 Облачность пасмурно +2 / +2 733 87 В, 4
16.03.2019 Облачность пасмурно +7 / +1 731 53 Ю-З, 3
17.03.2019 Облачность дождь +5 / -1 734 87 Ю-З, 3
18.03.2019 Облачность пасмурно +10 / +0 743 56 Ю-В, 2
19.03.2019 Облачность ясно +12 / +1 745 49 Ю-В, 4
20.03.2019 Облачность ясно +12 / +2 744 48 В, 2
21.03.2019 Облачность ясно +11 / +1 743 33 С-З, 3
22.03.2019 Облачность пасмурно +9 / -1 740 49 З, 5
23.03.2019 Облачность дождь +2 / +0 740 66 С-З, 6
24.03.2019 Облачность пасмурно +4 / +1 743 58 С-З, 4
25.03.2019 Облачность пасмурно +9 / +2 742 40 З, 1
26.03.2019 Облачность пасмурно +9 / +0 740 50 Ю, 6
27.03.2019 Облачность пасмурно +10 / +5 739 55 Ю-В, 3
28.03.2019 Облачность дождь +11 / +4 742 73 Ю-В, 3
29.03.2019 Облачность ясно +13 / +2 746 44 В, 5
30.03.2019 Облачность ясно +12 / +2 746 42 В, 4
31.03.2019 Облачность ясно +9 / +3 745 54 С-В, 6
icon
Облачность:дождь дождь
Темп. днем:1..3 °C
Темп. ночью:-1..1 °C
Давление:740 мм
Влажность:66 %
Ветер:СЗ, 6 м/с
icon
USDusd26,96(-0,29538)
RUBrub0,42(-0,00482)
EUReur30,47(-0,56551)
icon
Сб. 23 Март 2019
icon
Логин:
Код: ---
 
Реклама
icon